sensor_id;sensor_type;location;lat;lon;timestamp;P1;durP1;ratioP1;P2;durP2;ratioP2
20417;SDS011;10368;51.436;6.774;2023-01-04T00:02:06;3.97;;;1.80;;
20417;SDS011;10368;51.436;6.774;2023-01-04T00:04:33;5.60;;;2.03;;
20417;SDS011;10368;51.436;6.774;2023-01-04T00:07:00;5.00;;;2.10;;
20417;SDS011;10368;51.436;6.774;2023-01-04T00:09:27;5.97;;;2.13;;
20417;SDS011;10368;51.436;6.774;2023-01-04T00:11:54;5.03;;;1.73;;
20417;SDS011;10368;51.436;6.774;2023-01-04T00:14:23;3.93;;;1.70;;
20417;SDS011;10368;51.436;6.774;2023-01-04T00:16:49;4.87;;;2.23;;
20417;SDS011;10368;51.436;6.774;2023-01-04T00:19:16;5.30;;;1.63;;
20417;SDS011;10368;51.436;6.774;2023-01-04T00:21:43;4.10;;;1.70;;
20417;SDS011;10368;51.436;6.774;2023-01-04T00:24:10;5.30;;;1.67;;
20417;SDS011;10368;51.436;6.774;2023-01-04T00:26:40;4.03;;;1.50;;
20417;SDS011;10368;51.436;6.774;2023-01-04T00:29:08;9.50;;;1.90;;
20417;SDS011;10368;51.436;6.774;2023-01-04T00:31:37;4.27;;;1.83;;
20417;SDS011;10368;51.436;6.774;2023-01-04T00:34:05;4.50;;;1.83;;
20417;SDS011;10368;51.436;6.774;2023-01-04T00:36:32;7.67;;;2.23;;
20417;SDS011;10368;51.436;6.774;2023-01-04T00:39:00;6.07;;;1.67;;
20417;SDS011;10368;51.436;6.774;2023-01-04T00:44:28;4.70;;;2.03;;
20417;SDS011;10368;51.436;6.774;2023-01-04T00:46:56;5.10;;;3.60;;
20417;SDS011;10368;51.436;6.774;2023-01-04T00:49:24;4.83;;;1.73;;
20417;SDS011;10368;51.436;6.774;2023-01-04T00:51:51;5.53;;;1.93;;
20417;SDS011;10368;51.436;6.774;2023-01-04T00:54:18;4.77;;;2.03;;
20417;SDS011;10368;51.436;6.774;2023-01-04T00:56:45;3.87;;;1.97;;
20417;SDS011;10368;51.436;6.774;2023-01-04T00:59:13;3.53;;;1.60;;
20417;SDS011;10368;51.436;6.774;2023-01-04T01:01:41;2.77;;;1.60;;
20417;SDS011;10368;51.436;6.774;2023-01-04T01:04:10;5.10;;;1.80;;
20417;SDS011;10368;51.436;6.774;2023-01-04T01:06:39;5.93;;;2.00;;
20417;SDS011;10368;51.436;6.774;2023-01-04T01:09:06;5.63;;;1.90;;
20417;SDS011;10368;51.436;6.774;2023-01-04T01:11:33;3.23;;;1.93;;
20417;SDS011;10368;51.436;6.774;2023-01-04T01:14:02;6.50;;;1.63;;
20417;SDS011;10368;51.436;6.774;2023-01-04T01:16:29;4.27;;;1.80;;
20417;SDS011;10368;51.436;6.774;2023-01-04T01:19:15;3.93;;;1.60;;
20417;SDS011;10368;51.436;6.774;2023-01-04T01:21:42;4.73;;;1.50;;
20417;SDS011;10368;51.436;6.774;2023-01-04T01:24:13;8.70;;;1.80;;
20417;SDS011;10368;51.436;6.774;2023-01-04T01:26:41;4.27;;;1.67;;
20417;SDS011;10368;51.436;6.774;2023-01-04T01:29:08;3.87;;;1.47;;
20417;SDS011;10368;51.436;6.774;2023-01-04T01:31:35;6.90;;;2.13;;
20417;SDS011;10368;51.436;6.774;2023-01-04T01:34:02;11.13;;;2.23;;
20417;SDS011;10368;51.436;6.774;2023-01-04T01:36:28;3.53;;;1.57;;
20417;SDS011;10368;51.436;6.774;2023-01-04T01:38:55;6.43;;;2.03;;
20417;SDS011;10368;51.436;6.774;2023-01-04T01:41:26;6.30;;;2.20;;
20417;SDS011;10368;51.436;6.774;2023-01-04T01:43:55;11.07;;;2.27;;
20417;SDS011;10368;51.436;6.774;2023-01-04T01:52:00;4.77;;;1.80;;
20417;SDS011;10368;51.436;6.774;2023-01-04T01:54:38;3.77;;;1.70;;
20417;SDS011;10368;51.436;6.774;2023-01-04T01:57:09;8.13;;;1.87;;
20417;SDS011;10368;51.436;6.774;2023-01-04T01:59:41;11.17;;;2.50;;
20417;SDS011;10368;51.436;6.774;2023-01-04T02:02:11;5.30;;;1.87;;
20417;SDS011;10368;51.436;6.774;2023-01-04T02:04:39;6.77;;;1.70;;
20417;SDS011;10368;51.436;6.774;2023-01-04T02:07:09;10.73;;;4.63;;
20417;SDS011;10368;51.436;6.774;2023-01-04T02:09:39;6.53;;;2.30;;
20417;SDS011;10368;51.436;6.774;2023-01-04T02:12:10;11.63;;;2.00;;
20417;SDS011;10368;51.436;6.774;2023-01-04T02:14:38;5.63;;;1.90;;
20417;SDS011;10368;51.436;6.774;2023-01-04T02:20:50;7.47;;;1.80;;
20417;SDS011;10368;51.436;6.774;2023-01-04T02:34:26;5.13;;;2.40;;
20417;SDS011;10368;51.436;6.774;2023-01-04T02:37:02;7.33;;;1.83;;
20417;SDS011;10368;51.436;6.774;2023-01-04T02:45:47;4.40;;;2.07;;
20417;SDS011;10368;51.436;6.774;2023-01-04T02:48:21;7.73;;;2.20;;
20417;SDS011;10368;51.436;6.774;2023-01-04T02:54:03;6.10;;;2.20;;
20417;SDS011;10368;51.436;6.774;2023-01-04T02:56:43;2.90;;;1.93;;
20417;SDS011;10368;51.436;6.774;2023-01-04T03:05:24;9.63;;;2.13;;
20417;SDS011;10368;51.436;6.774;2023-01-04T03:11:00;7.60;;;2.10;;
20417;SDS011;10368;51.436;6.774;2023-01-04T03:13:40;6.47;;;2.40;;
20417;SDS011;10368;51.436;6.774;2023-01-04T03:16:15;7.80;;;2.20;;
20417;SDS011;10368;51.436;6.774;2023-01-04T03:18:47;3.17;;;2.10;;
20417;SDS011;10368;51.436;6.774;2023-01-04T03:21:17;4.83;;;2.83;;
20417;SDS011;10368;51.436;6.774;2023-01-04T03:23:48;4.07;;;2.20;;
20417;SDS011;10368;51.436;6.774;2023-01-04T03:26:40;4.80;;;2.07;;
20417;SDS011;10368;51.436;6.774;2023-01-04T03:29:34;6.27;;;1.87;;
20417;SDS011;10368;51.436;6.774;2023-01-04T03:32:22;2.93;;;1.80;;
20417;SDS011;10368;51.436;6.774;2023-01-04T03:38:14;4.27;;;1.77;;
20417;SDS011;10368;51.436;6.774;2023-01-04T03:41:11;2.43;;;1.53;;
20417;SDS011;10368;51.436;6.774;2023-01-04T03:47:02;5.13;;;1.30;;
20417;SDS011;10368;51.436;6.774;2023-01-04T03:49:53;2.40;;;1.40;;
20417;SDS011;10368;51.436;6.774;2023-01-04T03:52:27;3.30;;;1.40;;
20417;SDS011;10368;51.436;6.774;2023-01-04T03:54:58;4.60;;;1.97;;
20417;SDS011;10368;51.436;6.774;2023-01-04T03:57:27;2.73;;;1.60;;
20417;SDS011;10368;51.436;6.774;2023-01-04T03:59:57;4.63;;;1.50;;
20417;SDS011;10368;51.436;6.774;2023-01-04T04:02:28;4.77;;;2.37;;
20417;SDS011;10368;51.436;6.774;2023-01-04T04:04:55;6.00;;;2.30;;
20417;SDS011;10368;51.436;6.774;2023-01-04T04:07:41;3.57;;;2.07;;
20417;SDS011;10368;51.436;6.774;2023-01-04T04:10:26;2.00;;;1.50;;
20417;SDS011;10368;51.436;6.774;2023-01-04T04:12:53;2.53;;;1.40;;
20417;SDS011;10368;51.436;6.774;2023-01-04T04:15:20;1.00;;;0.80;;
20417;SDS011;10368;51.436;6.774;2023-01-04T04:17:47;1.87;;;1.10;;
20417;SDS011;10368;51.436;6.774;2023-01-04T04:20:14;2.00;;;1.30;;
20417;SDS011;10368;51.436;6.774;2023-01-04T04:22:41;1.90;;;1.50;;
20417;SDS011;10368;51.436;6.774;2023-01-04T04:25:08;2.27;;;2.07;;
20417;SDS011;10368;51.436;6.774;2023-01-04T04:27:35;1.83;;;1.20;;
20417;SDS011;10368;51.436;6.774;2023-01-04T04:30:02;3.23;;;1.00;;
20417;SDS011;10368;51.436;6.774;2023-01-04T04:32:29;2.40;;;1.13;;
20417;SDS011;10368;51.436;6.774;2023-01-04T04:34:56;4.67;;;2.30;;
20417;SDS011;10368;51.436;6.774;2023-01-04T04:37:23;5.33;;;2.00;;
20417;SDS011;10368;51.436;6.774;2023-01-04T04:39:52;1.67;;;1.57;;
20417;SDS011;10368;51.436;6.774;2023-01-04T04:42:19;2.63;;;2.07;;
20417;SDS011;10368;51.436;6.774;2023-01-04T04:44:45;3.73;;;2.47;;
20417;SDS011;10368;51.436;6.774;2023-01-04T04:47:12;5.53;;;3.43;;
20417;SDS011;10368;51.436;6.774;2023-01-04T04:49:39;3.97;;;1.80;;
20417;SDS011;10368;51.436;6.774;2023-01-04T04:52:06;3.97;;;2.10;;
20417;SDS011;10368;51.436;6.774;2023-01-04T04:54:33;2.90;;;2.00;;
20417;SDS011;10368;51.436;6.774;2023-01-04T04:57:00;3.93;;;2.17;;
20417;SDS011;10368;51.436;6.774;2023-01-04T04:59:27;5.37;;;3.47;;
20417;SDS011;10368;51.436;6.774;2023-01-04T05:01:53;5.47;;;3.20;;
20417;SDS011;10368;51.436;6.774;2023-01-04T05:04:21;5.17;;;3.13;;
20417;SDS011;10368;51.436;6.774;2023-01-04T05:06:48;4.50;;;2.80;;
20417;SDS011;10368;51.436;6.774;2023-01-04T05:09:15;13.93;;;3.67;;
20417;SDS011;10368;51.436;6.774;2023-01-04T05:11:42;7.43;;;4.73;;
20417;SDS011;10368;51.436;6.774;2023-01-04T05:14:27;8.93;;;3.90;;
20417;SDS011;10368;51.436;6.774;2023-01-04T05:16:54;5.87;;;3.97;;
20417;SDS011;10368;51.436;6.774;2023-01-04T05:19:21;7.30;;;4.30;;
20417;SDS011;10368;51.436;6.774;2023-01-04T05:21:48;6.07;;;4.17;;
20417;SDS011;10368;51.436;6.774;2023-01-04T05:24:15;5.40;;;3.60;;
20417;SDS011;10368;51.436;6.774;2023-01-04T05:26:41;9.43;;;4.63;;
20417;SDS011;10368;51.436;6.774;2023-01-04T05:29:09;13.10;;;5.20;;
20417;SDS011;10368;51.436;6.774;2023-01-04T05:31:58;10.90;;;5.17;;
20417;SDS011;10368;51.436;6.774;2023-01-04T05:34:25;11.53;;;5.97;;
20417;SDS011;10368;51.436;6.774;2023-01-04T05:36:52;9.93;;;4.73;;
20417;SDS011;10368;51.436;6.774;2023-01-04T05:39:18;7.23;;;3.40;;
20417;SDS011;10368;51.436;6.774;2023-01-04T05:41:45;6.33;;;3.27;;
20417;SDS011;10368;51.436;6.774;2023-01-04T05:44:30;3.97;;;2.33;;
20417;SDS011;10368;51.436;6.774;2023-01-04T05:46:57;2.73;;;1.80;;
20417;SDS011;10368;51.436;6.774;2023-01-04T05:49:24;3.33;;;1.80;;
20417;SDS011;10368;51.436;6.774;2023-01-04T05:51:51;1.93;;;1.40;;
20417;SDS011;10368;51.436;6.774;2023-01-04T05:54:21;3.60;;;1.83;;
20417;SDS011;10368;51.436;6.774;2023-01-04T05:57:13;2.37;;;1.60;;
20417;SDS011;10368;51.436;6.774;2023-01-04T05:59:40;2.73;;;1.53;;
20417;SDS011;10368;51.436;6.774;2023-01-04T06:02:12;5.73;;;1.50;;
20417;SDS011;10368;51.436;6.774;2023-01-04T06:04:41;3.30;;;2.40;;
20417;SDS011;10368;51.436;6.774;2023-01-04T06:07:08;5.87;;;2.87;;
20417;SDS011;10368;51.436;6.774;2023-01-04T06:09:35;4.23;;;2.97;;
20417;SDS011;10368;51.436;6.774;2023-01-04T06:12:02;6.03;;;3.47;;
20417;SDS011;10368;51.436;6.774;2023-01-04T06:14:29;5.23;;;2.63;;
20417;SDS011;10368;51.436;6.774;2023-01-04T06:16:56;5.10;;;2.40;;
20417;SDS011;10368;51.436;6.774;2023-01-04T06:19:23;4.00;;;2.20;;
20417;SDS011;10368;51.436;6.774;2023-01-04T06:21:50;5.07;;;2.43;;
20417;SDS011;10368;51.436;6.774;2023-01-04T06:24:17;3.57;;;2.20;;
20417;SDS011;10368;51.436;6.774;2023-01-04T06:26:44;5.27;;;2.40;;
20417;SDS011;10368;51.436;6.774;2023-01-04T06:29:12;3.63;;;2.73;;
20417;SDS011;10368;51.436;6.774;2023-01-04T06:31:39;5.43;;;2.20;;
20417;SDS011;10368;51.436;6.774;2023-01-04T06:34:05;3.10;;;2.43;;
20417;SDS011;10368;51.436;6.774;2023-01-04T06:36:32;1.97;;;1.27;;
20417;SDS011;10368;51.436;6.774;2023-01-04T06:39:01;3.13;;;1.83;;
20417;SDS011;10368;51.436;6.774;2023-01-04T06:41:27;2.93;;;0.70;;
20417;SDS011;10368;51.436;6.774;2023-01-04T06:43:54;0.53;;;0.53;;
20417;SDS011;10368;51.436;6.774;2023-01-04T06:46:21;1.27;;;0.80;;
20417;SDS011;10368;51.436;6.774;2023-01-04T06:48:48;2.60;;;1.13;;
20417;SDS011;10368;51.436;6.774;2023-01-04T06:51:15;0.70;;;0.70;;
20417;SDS011;10368;51.436;6.774;2023-01-04T06:53:42;2.30;;;0.97;;
20417;SDS011;10368;51.436;6.774;2023-01-04T06:56:08;1.67;;;0.90;;
20417;SDS011;10368;51.436;6.774;2023-01-04T06:58:35;1.23;;;0.90;;
20417;SDS011;10368;51.436;6.774;2023-01-04T07:01:02;1.37;;;0.70;;
20417;SDS011;10368;51.436;6.774;2023-01-04T07:03:30;1.50;;;0.80;;
20417;SDS011;10368;51.436;6.774;2023-01-04T07:05:57;2.50;;;1.20;;
20417;SDS011;10368;51.436;6.774;2023-01-04T07:08:24;3.20;;;0.90;;
20417;SDS011;10368;51.436;6.774;2023-01-04T07:10:51;1.23;;;0.70;;
20417;SDS011;10368;51.436;6.774;2023-01-04T07:13:17;1.30;;;0.70;;
20417;SDS011;10368;51.436;6.774;2023-01-04T07:15:44;0.70;;;0.67;;
20417;SDS011;10368;51.436;6.774;2023-01-04T07:18:11;0.60;;;0.60;;
20417;SDS011;10368;51.436;6.774;2023-01-04T07:20:38;0.87;;;0.80;;
20417;SDS011;10368;51.436;6.774;2023-01-04T07:23:05;1.50;;;0.90;;
20417;SDS011;10368;51.436;6.774;2023-01-04T07:25:33;1.13;;;0.70;;
20417;SDS011;10368;51.436;6.774;2023-01-04T07:28:00;1.83;;;0.90;;
20417;SDS011;10368;51.436;6.774;2023-01-04T07:30:27;1.97;;;1.17;;
20417;SDS011;10368;51.436;6.774;2023-01-04T07:32:54;1.00;;;0.90;;
20417;SDS011;10368;51.436;6.774;2023-01-04T07:35:21;1.00;;;0.60;;
20417;SDS011;10368;51.436;6.774;2023-01-04T07:37:48;0.50;;;0.50;;
20417;SDS011;10368;51.436;6.774;2023-01-04T07:40:23;1.50;;;0.70;;
20417;SDS011;10368;51.436;6.774;2023-01-04T07:42:56;1.70;;;0.90;;
20417;SDS011;10368;51.436;6.774;2023-01-04T07:45:24;2.00;;;0.90;;
20417;SDS011;10368;51.436;6.774;2023-01-04T07:47:51;4.60;;;0.80;;
20417;SDS011;10368;51.436;6.774;2023-01-04T07:50:20;2.70;;;1.07;;
20417;SDS011;10368;51.436;6.774;2023-01-04T07:52:47;2.07;;;1.10;;
20417;SDS011;10368;51.436;6.774;2023-01-04T07:55:13;0.97;;;0.90;;
20417;SDS011;10368;51.436;6.774;2023-01-04T07:57:40;1.40;;;1.20;;
20417;SDS011;10368;51.436;6.774;2023-01-04T08:00:07;0.80;;;0.80;;
20417;SDS011;10368;51.436;6.774;2023-01-04T08:02:34;0.83;;;0.70;;
20417;SDS011;10368;51.436;6.774;2023-01-04T08:05:01;2.00;;;1.10;;
20417;SDS011;10368;51.436;6.774;2023-01-04T08:07:28;2.30;;;1.07;;
20417;SDS011;10368;51.436;6.774;2023-01-04T08:09:55;1.67;;;0.87;;
20417;SDS011;10368;51.436;6.774;2023-01-04T08:12:22;2.93;;;0.90;;
20417;SDS011;10368;51.436;6.774;2023-01-04T08:14:48;1.10;;;0.90;;
20417;SDS011;10368;51.436;6.774;2023-01-04T08:17:15;1.33;;;1.00;;
20417;SDS011;10368;51.436;6.774;2023-01-04T08:19:42;3.53;;;1.10;;
20417;SDS011;10368;51.436;6.774;2023-01-04T08:22:12;1.67;;;0.90;;
20417;SDS011;10368;51.436;6.774;2023-01-04T08:24:39;1.10;;;1.00;;
20417;SDS011;10368;51.436;6.774;2023-01-04T08:27:05;1.67;;;1.10;;
20417;SDS011;10368;51.436;6.774;2023-01-04T08:29:33;3.00;;;2.70;;
20417;SDS011;10368;51.436;6.774;2023-01-04T08:32:00;3.90;;;2.13;;
20417;SDS011;10368;51.436;6.774;2023-01-04T08:34:28;3.37;;;2.00;;
20417;SDS011;10368;51.436;6.774;2023-01-04T08:36:56;4.90;;;2.90;;
20417;SDS011;10368;51.436;6.774;2023-01-04T08:39:23;2.83;;;2.20;;
20417;SDS011;10368;51.436;6.774;2023-01-04T08:41:53;6.27;;;3.57;;
20417;SDS011;10368;51.436;6.774;2023-01-04T08:44:39;5.20;;;2.60;;
20417;SDS011;10368;51.436;6.774;2023-01-04T08:47:06;2.33;;;1.37;;
20417;SDS011;10368;51.436;6.774;2023-01-04T08:49:33;2.83;;;1.70;;
20417;SDS011;10368;51.436;6.774;2023-01-04T08:52:06;1.23;;;1.00;;
20417;SDS011;10368;51.436;6.774;2023-01-04T08:54:34;1.07;;;1.00;;
20417;SDS011;10368;51.436;6.774;2023-01-04T08:57:04;3.67;;;1.43;;
20417;SDS011;10368;51.436;6.774;2023-01-04T08:59:30;2.07;;;1.20;;
20417;SDS011;10368;51.436;6.774;2023-01-04T09:01:57;4.07;;;1.10;;
20417;SDS011;10368;51.436;6.774;2023-01-04T09:04:31;1.53;;;0.87;;
20417;SDS011;10368;51.436;6.774;2023-01-04T09:06:58;1.13;;;0.90;;
20417;SDS011;10368;51.436;6.774;2023-01-04T09:09:24;1.00;;;1.00;;
20417;SDS011;10368;51.436;6.774;2023-01-04T09:11:54;1.17;;;1.07;;
20417;SDS011;10368;51.436;6.774;2023-01-04T09:14:27;1.53;;;1.00;;
20417;SDS011;10368;51.436;6.774;2023-01-04T09:16:54;1.40;;;1.00;;
20417;SDS011;10368;51.436;6.774;2023-01-04T09:19:24;0.93;;;0.90;;
20417;SDS011;10368;51.436;6.774;2023-01-04T09:21:54;1.20;;;1.10;;
20417;SDS011;10368;51.436;6.774;2023-01-04T09:24:28;7.77;;;1.27;;
20417;SDS011;10368;51.436;6.774;2023-01-04T09:26:57;2.43;;;1.60;;
20417;SDS011;10368;51.436;6.774;2023-01-04T09:29:24;1.70;;;1.47;;
20417;SDS011;10368;51.436;6.774;2023-01-04T09:31:53;2.10;;;1.50;;
20417;SDS011;10368;51.436;6.774;2023-01-04T09:34:19;4.73;;;1.33;;
20417;SDS011;10368;51.436;6.774;2023-01-04T09:36:47;2.07;;;1.47;;
20417;SDS011;10368;51.436;6.774;2023-01-04T09:39:14;3.83;;;1.70;;
20417;SDS011;10368;51.436;6.774;2023-01-04T09:41:57;1.60;;;1.50;;
20417;SDS011;10368;51.436;6.774;2023-01-04T09:53:10;1.40;;;1.00;;
20417;SDS011;10368;51.436;6.774;2023-01-04T09:55:48;2.10;;;0.90;;
20417;SDS011;10368;51.436;6.774;2023-01-04T10:01:02;0.80;;;0.80;;
20417;SDS011;10368;51.436;6.774;2023-01-04T10:06:29;1.37;;;0.93;;
20417;SDS011;10368;51.436;6.774;2023-01-04T10:09:00;1.63;;;1.07;;
20417;SDS011;10368;51.436;6.774;2023-01-04T10:25:57;1.43;;;1.10;;
20417;SDS011;10368;51.436;6.774;2023-01-04T10:28:50;2.60;;;1.00;;
20417;SDS011;10368;51.436;6.774;2023-01-04T10:31:42;1.33;;;1.00;;
20417;SDS011;10368;51.436;6.774;2023-01-04T10:34:31;1.20;;;0.90;;
20417;SDS011;10368;51.436;6.774;2023-01-04T10:37:09;1.97;;;0.90;;
20417;SDS011;10368;51.436;6.774;2023-01-04T10:39:58;1.30;;;1.00;;
20417;SDS011;10368;51.436;6.774;2023-01-04T10:42:33;2.67;;;1.03;;
20417;SDS011;10368;51.436;6.774;2023-01-04T10:45:34;1.40;;;1.30;;
20417;SDS011;10368;51.436;6.774;2023-01-04T10:48:17;1.73;;;1.40;;
20417;SDS011;10368;51.436;6.774;2023-01-04T10:50:53;1.40;;;1.03;;
20417;SDS011;10368;51.436;6.774;2023-01-04T11:01:27;4.27;;;1.00;;
20417;SDS011;10368;51.436;6.774;2023-01-04T11:03:57;2.73;;;1.17;;
20417;SDS011;10368;51.436;6.774;2023-01-04T11:06:30;6.00;;;1.07;;
20417;SDS011;10368;51.436;6.774;2023-01-04T11:09:10;1.50;;;1.17;;
20417;SDS011;10368;51.436;6.774;2023-01-04T11:11:48;4.43;;;1.37;;
20417;SDS011;10368;51.436;6.774;2023-01-04T11:14:16;2.30;;;1.30;;
20417;SDS011;10368;51.436;6.774;2023-01-04T11:16:45;3.77;;;1.50;;
20417;SDS011;10368;51.436;6.774;2023-01-04T11:19:12;2.33;;;1.50;;
20417;SDS011;10368;51.436;6.774;2023-01-04T11:21:42;1.83;;;1.27;;
20417;SDS011;10368;51.436;6.774;2023-01-04T11:24:12;1.83;;;1.40;;
20417;SDS011;10368;51.436;6.774;2023-01-04T11:27:00;1.70;;;1.30;;
20417;SDS011;10368;51.436;6.774;2023-01-04T11:32:50;3.00;;;1.23;;
20417;SDS011;10368;51.436;6.774;2023-01-04T11:34:56;2.67;;;1.30;;
20417;SDS011;10368;51.436;6.774;2023-01-04T11:42:44;1.97;;;1.13;;
20417;SDS011;10368;51.436;6.774;2023-01-04T11:45:20;2.73;;;1.17;;
20417;SDS011;10368;51.436;6.774;2023-01-04T11:47:55;2.03;;;1.40;;
20417;SDS011;10368;51.436;6.774;2023-01-04T11:50:45;1.80;;;1.10;;
20417;SDS011;10368;51.436;6.774;2023-01-04T11:53:23;3.30;;;1.30;;
20417;SDS011;10368;51.436;6.774;2023-01-04T11:56:06;1.07;;;0.90;;
20417;SDS011;10368;51.436;6.774;2023-01-04T11:58:36;1.23;;;1.07;;
20417;SDS011;10368;51.436;6.774;2023-01-04T12:01:03;1.70;;;1.43;;
20417;SDS011;10368;51.436;6.774;2023-01-04T12:06:02;1.87;;;1.13;;
20417;SDS011;10368;51.436;6.774;2023-01-04T12:08:46;1.93;;;1.10;;
20417;SDS011;10368;51.436;6.774;2023-01-04T12:11:25;1.20;;;1.10;;
20417;SDS011;10368;51.436;6.774;2023-01-04T12:13:53;1.90;;;0.97;;
20417;SDS011;10368;51.436;6.774;2023-01-04T12:19:14;1.20;;;1.10;;
20417;SDS011;10368;51.436;6.774;2023-01-04T12:21:43;1.43;;;1.10;;
20417;SDS011;10368;51.436;6.774;2023-01-04T12:24:38;1.37;;;1.13;;
20417;SDS011;10368;51.436;6.774;2023-01-04T12:27:10;2.80;;;1.17;;
20417;SDS011;10368;51.436;6.774;2023-01-04T12:29:41;1.30;;;1.00;;
20417;SDS011;10368;51.436;6.774;2023-01-04T12:34:41;2.73;;;1.20;;
20417;SDS011;10368;51.436;6.774;2023-01-04T12:37:10;1.50;;;1.10;;
20417;SDS011;10368;51.436;6.774;2023-01-04T12:39:57;2.17;;;1.43;;
20417;SDS011;10368;51.436;6.774;2023-01-04T12:42:24;0.93;;;0.87;;
20417;SDS011;10368;51.436;6.774;2023-01-04T12:44:57;2.77;;;1.10;;
20417;SDS011;10368;51.436;6.774;2023-01-04T12:50:17;1.30;;;1.13;;
20417;SDS011;10368;51.436;6.774;2023-01-04T12:52:46;1.43;;;1.10;;
20417;SDS011;10368;51.436;6.774;2023-01-04T12:58:37;1.33;;;1.10;;
20417;SDS011;10368;51.436;6.774;2023-01-04T13:01:26;1.33;;;0.90;;
20417;SDS011;10368;51.436;6.774;2023-01-04T13:04:16;1.00;;;1.00;;
20417;SDS011;10368;51.436;6.774;2023-01-04T13:06:55;0.90;;;0.90;;
20417;SDS011;10368;51.436;6.774;2023-01-04T13:09:38;0.70;;;0.70;;
20417;SDS011;10368;51.436;6.774;2023-01-04T13:12:18;1.10;;;1.00;;
20417;SDS011;10368;51.436;6.774;2023-01-04T13:15:02;2.90;;;1.00;;
20417;SDS011;10368;51.436;6.774;2023-01-04T13:17:38;2.20;;;0.90;;
20417;SDS011;10368;51.436;6.774;2023-01-04T13:20:18;1.60;;;1.00;;
20417;SDS011;10368;51.436;6.774;2023-01-04T13:22:54;2.07;;;0.83;;
20417;SDS011;10368;51.436;6.774;2023-01-04T13:25:23;1.00;;;0.90;;
20417;SDS011;10368;51.436;6.774;2023-01-04T13:30:29;0.93;;;0.90;;
20417;SDS011;10368;51.436;6.774;2023-01-04T13:32:58;1.03;;;0.90;;
20417;SDS011;10368;51.436;6.774;2023-01-04T13:36:01;1.00;;;1.00;;
20417;SDS011;10368;51.436;6.774;2023-01-04T13:38:34;2.40;;;1.00;;
20417;SDS011;10368;51.436;6.774;2023-01-04T13:41:02;1.17;;;1.07;;
20417;SDS011;10368;51.436;6.774;2023-01-04T13:43:53;2.23;;;1.40;;
20417;SDS011;10368;51.436;6.774;2023-01-04T13:46:42;1.80;;;1.33;;
20417;SDS011;10368;51.436;6.774;2023-01-04T13:49:10;4.60;;;2.30;;
20417;SDS011;10368;51.436;6.774;2023-01-04T13:51:43;1.23;;;1.03;;
20417;SDS011;10368;51.436;6.774;2023-01-04T13:54:19;1.10;;;0.90;;
20417;SDS011;10368;51.436;6.774;2023-01-04T13:56:48;1.37;;;1.20;;
20417;SDS011;10368;51.436;6.774;2023-01-04T14:05:54;1.57;;;1.07;;
20417;SDS011;10368;51.436;6.774;2023-01-04T14:08:33;1.60;;;0.83;;
20417;SDS011;10368;51.436;6.774;2023-01-04T14:11:14;1.07;;;1.07;;
20417;SDS011;10368;51.436;6.774;2023-01-04T14:19:45;0.90;;;0.90;;
20417;SDS011;10368;51.436;6.774;2023-01-04T14:24:48;1.23;;;1.10;;
20417;SDS011;10368;51.436;6.774;2023-01-04T14:27:39;2.50;;;1.20;;
20417;SDS011;10368;51.436;6.774;2023-01-04T14:35:19;10.07;;;1.57;;
20417;SDS011;10368;51.436;6.774;2023-01-04T14:37:47;2.60;;;1.60;;
20417;SDS011;10368;51.436;6.774;2023-01-04T14:40:14;1.60;;;1.50;;
20417;SDS011;10368;51.436;6.774;2023-01-04T14:42:56;3.60;;;2.03;;
20417;SDS011;10368;51.436;6.774;2023-01-04T14:45:23;3.97;;;2.20;;
20417;SDS011;10368;51.436;6.774;2023-01-04T14:47:52;2.77;;;1.30;;
20417;SDS011;10368;51.436;6.774;2023-01-04T14:50:19;1.70;;;1.40;;
20417;SDS011;10368;51.436;6.774;2023-01-04T14:52:50;1.70;;;1.60;;
20417;SDS011;10368;51.436;6.774;2023-01-04T14:55:18;1.50;;;1.40;;
20417;SDS011;10368;51.436;6.774;2023-01-04T14:57:45;2.03;;;1.67;;
20417;SDS011;10368;51.436;6.774;2023-01-04T15:00:12;5.00;;;2.00;;
20417;SDS011;10368;51.436;6.774;2023-01-04T15:02:45;2.40;;;1.50;;
20417;SDS011;10368;51.436;6.774;2023-01-04T15:05:16;2.60;;;1.30;;
20417;SDS011;10368;51.436;6.774;2023-01-04T15:07:47;2.27;;;1.80;;
20417;SDS011;10368;51.436;6.774;2023-01-04T15:10:17;2.23;;;1.63;;
20417;SDS011;10368;51.436;6.774;2023-01-04T15:12:45;1.73;;;1.60;;
20417;SDS011;10368;51.436;6.774;2023-01-04T15:15:12;1.60;;;1.50;;
20417;SDS011;10368;51.436;6.774;2023-01-04T15:17:39;1.80;;;1.57;;
20417;SDS011;10368;51.436;6.774;2023-01-04T15:20:06;1.67;;;1.03;;
20417;SDS011;10368;51.436;6.774;2023-01-04T15:22:33;2.20;;;1.23;;
20417;SDS011;10368;51.436;6.774;2023-01-04T15:25:00;1.13;;;1.03;;
20417;SDS011;10368;51.436;6.774;2023-01-04T15:27:27;1.60;;;1.10;;
20417;SDS011;10368;51.436;6.774;2023-01-04T15:29:59;1.37;;;1.00;;
20417;SDS011;10368;51.436;6.774;2023-01-04T15:32:26;1.37;;;0.90;;
20417;SDS011;10368;51.436;6.774;2023-01-04T15:34:53;2.23;;;1.10;;
20417;SDS011;10368;51.436;6.774;2023-01-04T15:37:22;1.13;;;0.77;;
20417;SDS011;10368;51.436;6.774;2023-01-04T15:39:57;1.97;;;1.03;;
20417;SDS011;10368;51.436;6.774;2023-01-04T15:42:28;1.90;;;1.30;;
20417;SDS011;10368;51.436;6.774;2023-01-04T15:45:25;2.53;;;1.23;;
20417;SDS011;10368;51.436;6.774;2023-01-04T15:47:57;3.17;;;1.40;;
20417;SDS011;10368;51.436;6.774;2023-01-04T15:50:33;3.67;;;1.20;;
20417;SDS011;10368;51.436;6.774;2023-01-04T15:53:05;1.80;;;1.23;;
20417;SDS011;10368;51.436;6.774;2023-01-04T15:55:33;3.00;;;1.20;;
20417;SDS011;10368;51.436;6.774;2023-01-04T15:58:02;3.00;;;0.90;;
20417;SDS011;10368;51.436;6.774;2023-01-04T16:00:33;1.83;;;1.07;;
20417;SDS011;10368;51.436;6.774;2023-01-04T16:03:25;3.50;;;1.67;;
20417;SDS011;10368;51.436;6.774;2023-01-04T16:06:14;3.13;;;1.80;;
20417;SDS011;10368;51.436;6.774;2023-01-04T16:09:03;2.27;;;1.50;;
20417;SDS011;10368;51.436;6.774;2023-01-04T16:11:30;2.60;;;1.33;;
20417;SDS011;10368;51.436;6.774;2023-01-04T16:13:57;3.00;;;1.20;;
20417;SDS011;10368;51.436;6.774;2023-01-04T16:16:26;3.67;;;1.60;;
20417;SDS011;10368;51.436;6.774;2023-01-04T16:18:54;6.63;;;1.43;;
20417;SDS011;10368;51.436;6.774;2023-01-04T16:21:25;3.63;;;1.47;;
20417;SDS011;10368;51.436;6.774;2023-01-04T16:24:01;5.70;;;1.57;;
20417;SDS011;10368;51.436;6.774;2023-01-04T16:26:47;8.50;;;1.83;;
20417;SDS011;10368;51.436;6.774;2023-01-04T16:29:14;4.03;;;1.60;;
20417;SDS011;10368;51.436;6.774;2023-01-04T16:31:41;3.80;;;1.67;;
20417;SDS011;10368;51.436;6.774;2023-01-04T16:34:13;2.97;;;1.53;;
20417;SDS011;10368;51.436;6.774;2023-01-04T16:36:40;5.93;;;2.00;;
20417;SDS011;10368;51.436;6.774;2023-01-04T16:39:07;5.83;;;2.03;;
20417;SDS011;10368;51.436;6.774;2023-01-04T16:41:34;4.97;;;1.60;;
20417;SDS011;10368;51.436;6.774;2023-01-04T16:44:03;2.97;;;0.93;;
20417;SDS011;10368;51.436;6.774;2023-01-04T16:46:34;4.73;;;1.70;;
20417;SDS011;10368;51.436;6.774;2023-01-04T16:49:03;5.87;;;1.67;;
20417;SDS011;10368;51.436;6.774;2023-01-04T16:51:38;2.90;;;1.40;;
20417;SDS011;10368;51.436;6.774;2023-01-04T16:54:07;2.67;;;1.17;;
20417;SDS011;10368;51.436;6.774;2023-01-04T16:56:36;3.47;;;1.10;;
20417;SDS011;10368;51.436;6.774;2023-01-04T16:59:05;1.60;;;1.03;;
20417;SDS011;10368;51.436;6.774;2023-01-04T17:01:34;3.47;;;1.13;;
20417;SDS011;10368;51.436;6.774;2023-01-04T17:04:10;1.80;;;1.20;;
20417;SDS011;10368;51.436;6.774;2023-01-04T17:06:39;1.27;;;1.07;;
20417;SDS011;10368;51.436;6.774;2023-01-04T17:09:09;1.90;;;1.13;;
20417;SDS011;10368;51.436;6.774;2023-01-04T17:11:40;2.17;;;0.87;;
20417;SDS011;10368;51.436;6.774;2023-01-04T17:14:28;1.73;;;1.40;;
20417;SDS011;10368;51.436;6.774;2023-01-04T17:16:56;2.20;;;1.20;;
20417;SDS011;10368;51.436;6.774;2023-01-04T17:19:23;1.70;;;1.57;;
20417;SDS011;10368;51.436;6.774;2023-01-04T17:21:50;1.30;;;0.97;;
20417;SDS011;10368;51.436;6.774;2023-01-04T17:24:17;6.30;;;1.10;;